Time;durP1;ratioP1;P1;durP2;ratioP2;P2;SDS_P1;SDS_P2;PMS_P1;PMS_P2;Temp;Humidity;BMP_temperature;BMP_pressure;BME280_temperature;BME280_humidity;BME280_pressure;Samples;Min_cycle;Max_cycle;Signal;HPM_P1;HPM_P2
2022/03/15 00:02:20;;;;;;;12.90;3.50;;;;;;;;;;5058226;28;20079;-73
2022/03/15 00:04:45;;;;;;;10.82;3.42;;;;;;;;;;5049285;28;20043;-75
2022/03/15 00:07:13;;;;;;;8.93;3.35;;;;;;;;;;5049780;28;20017;-75
2022/03/15 00:09:38;;;;;;;15.18;3.40;;;;;;;;;;5052950;28;20377;-74
2022/03/15 00:12:08;;;;;;;11.23;3.03;;;;;;;;;;5057740;28;20280;-74
2022/03/15 00:14:36;;;;;;;8.20;3.25;;;;;;;;;;5054556;28;20075;-77
2022/03/15 00:17:04;;;;;;;10.65;3.67;;;;;;;;;;5052312;28;20098;-77
2022/03/15 00:19:29;;;;;;;11.82;4.05;;;;;;;;;;5060818;28;20032;-75
2022/03/15 00:21:55;;;;;;;12.13;3.50;;;;;;;;;;5058603;28;20033;-76
2022/03/15 00:24:22;;;;;;;15.88;4.15;;;;;;;;;;5058811;28;20017;-74
2022/03/15 00:26:48;;;;;;;13.77;3.78;;;;;;;;;;5060208;28;20092;-74
2022/03/15 00:29:16;;;;;;;11.10;4.03;;;;;;;;;;5060692;28;20108;-77
2022/03/15 00:31:44;;;;;;;11.75;3.63;;;;;;;;;;5060364;28;20049;-75
2022/03/15 00:34:10;;;;;;;12.77;3.38;;;;;;;;;;5059744;28;20398;-77
2022/03/15 00:36:37;;;;;;;11.13;3.45;;;;;;;;;;5060660;28;20210;-73
2022/03/15 00:39:06;;;;;;;11.20;3.42;;;;;;;;;;5059937;28;20044;-73
2022/03/15 00:41:31;;;;;;;11.43;3.60;;;;;;;;;;5059324;28;20040;-75
2022/03/15 00:43:57;;;;;;;11.68;3.42;;;;;;;;;;5047739;28;20034;-75
2022/03/15 00:46:22;;;;;;;11.02;3.00;;;;;;;;;;5052342;28;20032;-73
2022/03/15 00:48:48;;;;;;;13.23;3.25;;;;;;;;;;5058884;28;20040;-74
2022/03/15 00:51:14;;;;;;;12.88;3.75;;;;;;;;;;5058666;28;20028;-73
2022/03/15 00:53:40;;;;;;;13.38;3.30;;;;;;;;;;5059828;28;20017;-74
2022/03/15 00:56:05;;;;;;;9.77;3.15;;;;;;;;;;5059213;28;20039;-73
2022/03/15 00:58:31;;;;;;;13.48;3.42;;;;;;;;;;5059894;28;20017;-74
2022/03/15 01:00:56;;;;;;;11.90;3.30;;;;;;;;;;5059362;28;20033;-74
2022/03/15 01:03:22;;;;;;;8.75;3.15;;;;;;;;;;5059687;28;20024;-74
2022/03/15 01:05:47;;;;;;;12.50;2.90;;;;;;;;;;5059154;28;20057;-74
2022/03/15 01:08:14;;;;;;;9.23;2.72;;;;;;;;;;5059780;28;20028;-74
2022/03/15 01:10:40;;;;;;;8.25;2.95;;;;;;;;;;5058911;28;20016;-73
2022/03/15 01:13:06;;;;;;;13.25;3.05;;;;;;;;;;5059655;28;20025;-75
2022/03/15 01:15:39;;;;;;;8.55;3.50;;;;;;;;;;5059501;28;20036;-74
2022/03/15 01:18:04;;;;;;;9.30;2.97;;;;;;;;;;5059599;28;20032;-76
2022/03/15 01:20:30;;;;;;;11.50;3.05;;;;;;;;;;5059481;28;20021;-74
2022/03/15 01:22:55;;;;;;;10.60;2.83;;;;;;;;;;5059350;28;20056;-74
2022/03/15 01:25:21;;;;;;;11.13;2.70;;;;;;;;;;5058556;28;20082;-73
2022/03/15 01:27:46;;;;;;;8.20;3.10;;;;;;;;;;5059549;28;20049;-74
2022/03/15 01:30:11;;;;;;;10.65;2.90;;;;;;;;;;5059610;28;20024;-74
2022/03/15 01:32:37;;;;;;;10.25;3.20;;;;;;;;;;5059391;28;20021;-73
2022/03/15 01:35:04;;;;;;;6.82;3.00;;;;;;;;;;5057330;28;20044;-73
2022/03/15 01:37:30;;;;;;;7.82;2.80;;;;;;;;;;5056407;28;20277;-74
2022/03/15 01:39:55;;;;;;;10.55;3.17;;;;;;;;;;5038704;28;20427;-73
2022/03/15 01:42:23;;;;;;;10.82;2.88;;;;;;;;;;5039401;28;20080;-73
2022/03/15 01:44:49;;;;;;;9.68;3.00;;;;;;;;;;5039942;28;20029;-73
2022/03/15 01:47:17;;;;;;;7.97;3.00;;;;;;;;;;5058351;28;20033;-73
2022/03/15 01:49:42;;;;;;;9.88;3.15;;;;;;;;;;5060329;28;20190;-73
2022/03/15 01:52:13;;;;;;;10.77;3.60;;;;;;;;;;5062796;28;20079;-73
2022/03/15 01:54:40;;;;;;;11.10;3.20;;;;;;;;;;5058649;28;20514;-72
2022/03/15 01:57:07;;;;;;;9.00;2.95;;;;;;;;;;5058983;28;20021;-73
2022/03/15 01:59:34;;;;;;;8.82;3.13;;;;;;;;;;5059251;28;20025;-73
2022/03/15 02:01:59;;;;;;;9.88;3.50;;;;;;;;;;5058922;28;20097;-73
2022/03/15 02:04:25;;;;;;;6.85;2.95;;;;;;;;;;5059175;28;20044;-73
2022/03/15 02:07:04;;;;;;;7.88;3.10;;;;;;;;;;5057875;28;20106;-73
2022/03/15 02:09:30;;;;;;;8.98;3.00;;;;;;;;;;5058347;28;20021;-73
2022/03/15 02:11:55;;;;;;;11.15;3.60;;;;;;;;;;5059564;28;20021;-73
2022/03/15 02:14:21;;;;;;;14.25;3.78;;;;;;;;;;5062777;28;20190;-73
2022/03/15 02:16:47;;;;;;;8.98;3.05;;;;;;;;;;5062368;28;20209;-73
2022/03/15 02:19:12;;;;;;;8.38;3.20;;;;;;;;;;5045473;28;20017;-73
2022/03/15 02:21:38;;;;;;;11.07;3.53;;;;;;;;;;5042782;28;20043;-73
2022/03/15 02:24:04;;;;;;;8.40;3.50;;;;;;;;;;5061722;28;20028;-73
2022/03/15 02:26:29;;;;;;;7.65;3.40;;;;;;;;;;5062683;28;20029;-73
2022/03/15 02:28:55;;;;;;;12.05;3.53;;;;;;;;;;5062856;28;20298;-73
2022/03/15 02:31:21;;;;;;;12.10;3.63;;;;;;;;;;5063010;28;20040;-73
2022/03/15 02:33:49;;;;;;;10.85;3.53;;;;;;;;;;5063277;28;20053;-72
2022/03/15 02:36:17;;;;;;;10.02;3.42;;;;;;;;;;5062773;28;20079;-73
2022/03/15 02:38:46;;;;;;;8.13;3.35;;;;;;;;;;5062321;28;20337;-73
2022/03/15 02:41:13;;;;;;;8.80;3.83;;;;;;;;;;5062807;28;20096;-73
2022/03/15 02:43:42;;;;;;;11.57;4.10;;;;;;;;;;5062786;28;20025;-73
2022/03/15 02:46:07;;;;;;;8.82;3.80;;;;;;;;;;5062432;28;20029;-73
2022/03/15 02:48:34;;;;;;;11.82;3.65;;;;;;;;;;5062468;28;20342;-73
2022/03/15 02:51:06;;;;;;;9.55;3.83;;;;;;;;;;5061771;28;20033;-73
2022/03/15 02:53:32;;;;;;;8.13;3.65;;;;;;;;;;5049537;28;20059;-73
2022/03/15 02:55:58;;;;;;;14.05;4.15;;;;;;;;;;5041580;28;20320;-73
2022/03/15 02:58:23;;;;;;;11.93;4.28;;;;;;;;;;5042075;28;20070;-73
2022/03/15 03:00:48;;;;;;;9.65;3.92;;;;;;;;;;5041967;28;20025;-73
2022/03/15 03:03:14;;;;;;;9.00;3.95;;;;;;;;;;5041945;28;20089;-73
2022/03/15 03:05:39;;;;;;;9.70;3.90;;;;;;;;;;5041418;28;20033;-73
2022/03/15 03:08:05;;;;;;;11.90;3.70;;;;;;;;;;5041222;28;20025;-73
2022/03/15 03:10:32;;;;;;;8.68;3.85;;;;;;;;;;5057369;28;20233;-73
2022/03/15 03:12:58;;;;;;;8.82;4.07;;;;;;;;;;5042733;28;20029;-73
2022/03/15 03:15:23;;;;;;;10.77;4.13;;;;;;;;;;5041897;28;20108;-73
2022/03/15 03:17:49;;;;;;;8.95;3.95;;;;;;;;;;5045862;28;20029;-73
2022/03/15 03:20:19;;;;;;;8.68;3.80;;;;;;;;;;5048276;28;20025;-73
2022/03/15 03:22:49;;;;;;;10.65;3.80;;;;;;;;;;5049628;28;20021;-72
2022/03/15 03:25:15;;;;;;;8.23;3.78;;;;;;;;;;5061159;28;20032;-73
2022/03/15 03:27:40;;;;;;;8.10;3.63;;;;;;;;;;5062202;28;20022;-73
2022/03/15 03:30:07;;;;;;;9.38;4.00;;;;;;;;;;5049241;28;20025;-73
2022/03/15 03:32:32;;;;;;;7.53;3.75;;;;;;;;;;5042780;28;20056;-73
2022/03/15 03:34:58;;;;;;;11.00;4.47;;;;;;;;;;5044503;28;20342;-74
2022/03/15 03:37:25;;;;;;;10.88;4.30;;;;;;;;;;5040910;28;20029;-73
2022/03/15 03:39:51;;;;;;;13.02;4.45;;;;;;;;;;5040360;28;20021;-73
2022/03/15 03:42:17;;;;;;;12.02;4.50;;;;;;;;;;5041074;28;20025;-73
2022/03/15 03:44:43;;;;;;;8.05;3.90;;;;;;;;;;5040878;28;20017;-75
2022/03/15 03:47:10;;;;;;;9.93;4.90;;;;;;;;;;5044442;28;20032;-73
2022/03/15 03:49:37;;;;;;;10.30;4.82;;;;;;;;;;5057416;28;20013;-75
2022/03/15 03:52:02;;;;;;;10.45;5.40;;;;;;;;;;5060736;28;20253;-73
2022/03/15 03:54:28;;;;;;;13.77;5.53;;;;;;;;;;5060416;28;20028;-72
2022/03/15 03:56:53;;;;;;;12.18;5.38;;;;;;;;;;5060583;28;20021;-76
2022/03/15 03:59:19;;;;;;;10.73;5.30;;;;;;;;;;5060833;28;20036;-74
2022/03/15 04:01:44;;;;;;;13.52;5.53;;;;;;;;;;5059334;28;20059;-74
2022/03/15 04:04:10;;;;;;;9.10;4.93;;;;;;;;;;5054738;28;20348;-75
2022/03/15 04:06:38;;;;;;;11.23;5.25;;;;;;;;;;5040588;28;20029;-77
2022/03/15 04:09:04;;;;;;;10.18;4.60;;;;;;;;;;5040000;28;20025;-77
2022/03/15 04:11:31;;;;;;;8.27;4.53;;;;;;;;;;5040840;28;20089;-76
2022/03/15 04:13:59;;;;;;;9.35;4.60;;;;;;;;;;5059492;28;20032;-76
2022/03/15 04:16:25;;;;;;;10.60;4.90;;;;;;;;;;5062516;28;20032;-76
2022/03/15 04:18:51;;;;;;;10.35;4.60;;;;;;;;;;5061136;28;20029;-74
2022/03/15 04:21:17;;;;;;;11.90;4.82;;;;;;;;;;5059848;28;20048;-74
2022/03/15 04:23:42;;;;;;;9.98;4.60;;;;;;;;;;5058183;28;20029;-74
2022/03/15 04:26:07;;;;;;;10.32;4.30;;;;;;;;;;5060864;28;20033;-73
2022/03/15 04:28:33;;;;;;;11.88;4.45;;;;;;;;;;5060864;28;20025;-75
2022/03/15 04:30:58;;;;;;;9.90;4.15;;;;;;;;;;5057032;28;20040;-74
2022/03/15 04:33:24;;;;;;;11.32;4.55;;;;;;;;;;5049003;28;20047;-74
2022/03/15 04:35:49;;;;;;;9.02;4.47;;;;;;;;;;5040118;28;20334;-74
2022/03/15 04:38:14;;;;;;;9.15;4.45;;;;;;;;;;5040959;28;20021;-75
2022/03/15 04:40:40;;;;;;;8.68;4.63;;;;;;;;;;5059171;28;20029;-74
2022/03/15 04:43:06;;;;;;;9.63;4.68;;;;;;;;;;5061489;28;20040;-74
2022/03/15 04:45:32;;;;;;;9.32;4.90;;;;;;;;;;5060548;28;20036;-75
2022/03/15 04:47:57;;;;;;;9.60;4.72;;;;;;;;;;5060248;28;20233;-73
2022/03/15 04:50:23;;;;;;;12.63;5.03;;;;;;;;;;5060531;28;20025;-73
2022/03/15 04:52:48;;;;;;;11.15;5.10;;;;;;;;;;5061027;28;20029;-73
2022/03/15 04:55:13;;;;;;;11.50;5.00;;;;;;;;;;5042055;28;20036;-72
2022/03/15 04:57:39;;;;;;;10.80;5.15;;;;;;;;;;5045326;28;20031;-73
2022/03/15 05:00:08;;;;;;;10.45;5.03;;;;;;;;;;5051876;28;20021;-73
2022/03/15 05:02:35;;;;;;;9.27;5.60;;;;;;;;;;5040669;28;20021;-75
2022/03/15 05:05:01;;;;;;;11.65;5.25;;;;;;;;;;5039847;28;20044;-73
2022/03/15 05:07:27;;;;;;;11.55;5.38;;;;;;;;;;5043602;28;20021;-73
2022/03/15 05:12:36;;;;;;;11.38;5.32;;;;;;;;;;5040356;28;20036;-73
2022/03/15 05:15:02;;;;;;;11.30;6.13;;;;;;;;;;5040272;28;20017;-73
2022/03/15 05:17:28;;;;;;;12.63;5.55;;;;;;;;;;5043479;28;20057;-73
2022/03/15 05:19:53;;;;;;;11.82;6.07;;;;;;;;;;5060389;28;20051;-73
2022/03/15 05:22:21;;;;;;;9.57;5.53;;;;;;;;;;5056622;28;20029;-75
2022/03/15 05:24:46;;;;;;;9.98;5.10;;;;;;;;;;5040163;28;20034;-72
2022/03/15 05:27:11;;;;;;;11.95;5.70;;;;;;;;;;5040098;28;20021;-73
2022/03/15 05:29:37;;;;;;;14.00;8.18;;;;;;;;;;5042059;28;20025;-74
2022/03/15 05:32:03;;;;;;;13.60;7.10;;;;;;;;;;5040054;28;20030;-74
2022/03/15 05:34:28;;;;;;;12.02;6.90;;;;;;;;;;5040087;28;20076;-75
2022/03/15 05:36:53;;;;;;;14.75;8.88;;;;;;;;;;5039988;28;20037;-72
2022/03/15 05:39:19;;;;;;;12.45;6.80;;;;;;;;;;5039860;28;20025;-74
2022/03/15 05:41:44;;;;;;;13.55;7.13;;;;;;;;;;5040014;28;20116;-74
2022/03/15 05:44:09;;;;;;;10.48;6.30;;;;;;;;;;5047741;28;20348;-75
2022/03/15 05:46:35;;;;;;;10.30;5.82;;;;;;;;;;5051954;28;20064;-74
2022/03/15 05:49:01;;;;;;;13.93;6.30;;;;;;;;;;5043950;28;20052;-76
2022/03/15 05:51:26;;;;;;;10.57;6.22;;;;;;;;;;5051522;28;20029;-76
2022/03/15 05:53:52;;;;;;;12.52;6.10;;;;;;;;;;5043890;28;20308;-74
2022/03/15 05:56:17;;;;;;;11.63;6.50;;;;;;;;;;5043830;28;20171;-75
2022/03/15 05:58:44;;;;;;;10.95;6.38;;;;;;;;;;5062191;28;20209;-74
2022/03/15 06:01:09;;;;;;;9.82;5.53;;;;;;;;;;5055421;28;20040;-76
2022/03/15 06:03:35;;;;;;;12.57;6.60;;;;;;;;;;5036549;28;20037;-74
2022/03/15 06:06:00;;;;;;;11.02;6.85;;;;;;;;;;5054105;28;20106;-75
2022/03/15 06:08:26;;;;;;;11.93;6.75;;;;;;;;;;5060180;28;20040;-75
2022/03/15 06:10:51;;;;;;;10.93;6.55;;;;;;;;;;5063230;28;20066;-74
2022/03/15 06:13:17;;;;;;;11.50;6.57;;;;;;;;;;5063408;28;20146;-74
2022/03/15 06:15:42;;;;;;;10.25;6.75;;;;;;;;;;5052505;28;20025;-74
2022/03/15 06:18:08;;;;;;;12.02;6.65;;;;;;;;;;5058790;28;20024;-74
2022/03/15 06:20:34;;;;;;;10.35;6.10;;;;;;;;;;5058079;28;20029;-75
2022/03/15 06:23:00;;;;;;;13.40;6.85;;;;;;;;;;5043182;28;20051;-74
2022/03/15 06:25:26;;;;;;;11.63;6.50;;;;;;;;;;5042970;28;20033;-72
2022/03/15 06:27:51;;;;;;;11.10;6.25;;;;;;;;;;5042919;28;20034;-73
2022/03/15 06:30:21;;;;;;;11.05;6.53;;;;;;;;;;5043076;28;20057;-74
2022/03/15 06:32:46;;;;;;;11.05;6.60;;;;;;;;;;5051965;28;20017;-75
2022/03/15 06:35:13;;;;;;;10.38;6.80;;;;;;;;;;5046013;28;20036;-73
2022/03/15 06:37:44;;;;;;;9.63;6.40;;;;;;;;;;5050353;28;20034;-74
2022/03/15 06:40:11;;;;;;;11.55;6.70;;;;;;;;;;5050192;28;20071;-74
2022/03/15 06:42:38;;;;;;;10.32;6.65;;;;;;;;;;5042774;28;20089;-74
2022/03/15 06:45:05;;;;;;;11.57;6.40;;;;;;;;;;5042848;28;20092;-75
2022/03/15 06:47:30;;;;;;;12.07;6.80;;;;;;;;;;5042472;28;20037;-76
2022/03/15 06:49:56;;;;;;;13.20;6.80;;;;;;;;;;5042451;28;20043;-74
2022/03/15 06:52:21;;;;;;;13.95;7.38;;;;;;;;;;5042629;28;20033;-74
2022/03/15 06:54:46;;;;;;;12.57;7.80;;;;;;;;;;5042123;28;20029;-74
2022/03/15 06:57:14;;;;;;;12.50;7.20;;;;;;;;;;5048668;28;20018;-75
2022/03/15 06:59:39;;;;;;;12.80;7.38;;;;;;;;;;5042206;28;20033;-74
2022/03/15 07:02:05;;;;;;;12.07;6.82;;;;;;;;;;5080751;28;20362;-74
2022/03/15 07:04:30;;;;;;;15.15;7.60;;;;;;;;;;5081892;28;20044;-74
2022/03/15 07:06:55;;;;;;;12.20;7.10;;;;;;;;;;5077453;28;20041;-72
2022/03/15 07:09:21;;;;;;;13.90;7.40;;;;;;;;;;5042503;28;20027;-74
2022/03/15 07:11:47;;;;;;;14.60;7.90;;;;;;;;;;5042045;28;20025;-75
2022/03/15 07:14:12;;;;;;;11.23;7.13;;;;;;;;;;5050020;28;20028;-72
2022/03/15 07:16:38;;;;;;;14.70;7.65;;;;;;;;;;5041995;28;20043;-73
2022/03/15 07:19:04;;;;;;;14.10;8.07;;;;;;;;;;5041825;28;20060;-74
2022/03/15 07:21:30;;;;;;;16.35;7.60;;;;;;;;;;5041900;28;20022;-73
2022/03/15 07:23:55;;;;;;;12.77;7.80;;;;;;;;;;5041723;28;20068;-74
2022/03/15 07:26:21;;;;;;;14.88;7.90;;;;;;;;;;5041645;28;20087;-74
2022/03/15 07:28:46;;;;;;;13.07;7.32;;;;;;;;;;5041779;28;20025;-75
2022/03/15 07:31:11;;;;;;;14.88;8.27;;;;;;;;;;5041674;28;20025;-76
2022/03/15 07:33:37;;;;;;;13.20;7.70;;;;;;;;;;5042076;28;20025;-77
2022/03/15 07:36:03;;;;;;;12.02;8.18;;;;;;;;;;5042031;28;20373;-75
2022/03/15 07:38:28;;;;;;;13.90;7.80;;;;;;;;;;5041000;28;20047;-76
2022/03/15 07:40:54;;;;;;;13.90;7.88;;;;;;;;;;5053149;28;20029;-76
2022/03/15 07:43:23;;;;;;;16.55;9.00;;;;;;;;;;5041771;28;20068;-75
2022/03/15 07:45:51;;;;;;;16.60;7.90;;;;;;;;;;5041481;28;20072;-75
2022/03/15 07:48:16;;;;;;;13.02;8.20;;;;;;;;;;5042233;28;21948;-73
2022/03/15 07:50:42;;;;;;;12.02;7.80;;;;;;;;;;5081395;28;20016;-75
2022/03/15 07:53:07;;;;;;;14.43;8.40;;;;;;;;;;5081487;28;20308;-75
2022/03/15 07:55:34;;;;;;;12.80;8.30;;;;;;;;;;5081158;28;20028;-74
2022/03/15 07:58:00;;;;;;;15.75;9.05;;;;;;;;;;5080757;28;20309;-77
2022/03/15 08:00:25;;;;;;;14.70;8.90;;;;;;;;;;5048744;28;20033;-77
2022/03/15 08:02:52;;;;;;;15.07;8.98;;;;;;;;;;5041076;28;20026;-76
2022/03/15 08:05:18;;;;;;;18.55;9.35;;;;;;;;;;5041069;28;20349;-76
2022/03/15 08:07:43;;;;;;;13.00;8.75;;;;;;;;;;5041666;28;20029;-75
2022/03/15 08:10:10;;;;;;;15.35;10.20;;;;;;;;;;5046455;28;20025;-75
2022/03/15 08:12:36;;;;;;;15.23;9.52;;;;;;;;;;5041125;28;20030;-75
2022/03/15 08:15:03;;;;;;;17.50;9.48;;;;;;;;;;5041225;28;20025;-77
2022/03/15 08:17:29;;;;;;;12.93;8.82;;;;;;;;;;5040995;28;20036;-77
2022/03/15 08:19:57;;;;;;;14.65;9.40;;;;;;;;;;5040979;28;20025;-75
2022/03/15 08:22:23;;;;;;;17.13;9.52;;;;;;;;;;5040722;28;20025;-76
2022/03/15 08:24:48;;;;;;;16.35;9.95;;;;;;;;;;5039248;28;20346;-74
2022/03/15 08:27:13;;;;;;;18.33;9.65;;;;;;;;;;5040887;28;20029;-77
2022/03/15 08:29:39;;;;;;;16.08;9.73;;;;;;;;;;5047341;28;20021;-74
2022/03/15 08:32:06;;;;;;;15.77;9.90;;;;;;;;;;5045949;28;20033;-76
2022/03/15 08:34:32;;;;;;;15.15;9.98;;;;;;;;;;5040756;28;20056;-74
2022/03/15 08:36:58;;;;;;;14.90;9.45;;;;;;;;;;5040381;28;20381;-74
2022/03/15 08:39:23;;;;;;;15.70;9.55;;;;;;;;;;5040261;28;20029;-78
2022/03/15 08:41:51;;;;;;;15.35;9.70;;;;;;;;;;5052040;28;20041;-77
2022/03/15 08:44:18;;;;;;;14.65;9.73;;;;;;;;;;5040487;28;20329;-77
2022/03/15 08:46:45;;;;;;;17.10;10.40;;;;;;;;;;5040471;28;20045;-78
2022/03/15 08:49:11;;;;;;;16.38;10.15;;;;;;;;;;5040617;28;20032;-75
2022/03/15 08:51:36;;;;;;;15.55;10.18;;;;;;;;;;5040132;28;20025;-76
2022/03/15 08:54:01;;;;;;;17.73;11.15;;;;;;;;;;5040120;28;20080;-75
2022/03/15 08:56:27;;;;;;;16.10;10.02;;;;;;;;;;5040119;28;20295;-76
2022/03/15 08:58:53;;;;;;;16.00;10.35;;;;;;;;;;5050405;28;20040;-75
2022/03/15 09:01:18;;;;;;;17.52;10.48;;;;;;;;;;5070623;28;20353;-75
2022/03/15 09:03:44;;;;;;;24.35;11.05;;;;;;;;;;5041791;28;20057;-74
2022/03/15 09:06:09;;;;;;;15.18;10.02;;;;;;;;;;5039694;28;20056;-75
2022/03/15 09:08:34;;;;;;;15.93;10.10;;;;;;;;;;5039974;28;20217;-75
2022/03/15 09:11:03;;;;;;;15.98;10.40;;;;;;;;;;5040132;28;20049;-75
2022/03/15 09:13:28;;;;;;;14.45;10.00;;;;;;;;;;5039787;28;20067;-75
2022/03/15 09:15:54;;;;;;;15.85;10.60;;;;;;;;;;5048227;28;20048;-76
2022/03/15 09:18:19;;;;;;;20.23;10.27;;;;;;;;;;5046501;28;20047;-75
2022/03/15 09:20:45;;;;;;;15.15;10.15;;;;;;;;;;5050269;28;20047;-75
2022/03/15 09:23:10;;;;;;;17.70;10.43;;;;;;;;;;5061329;28;20017;-76
2022/03/15 09:25:37;;;;;;;14.57;9.75;;;;;;;;;;5049918;28;20037;-75
2022/03/15 09:28:03;;;;;;;15.10;10.63;;;;;;;;;;5043673;28;20351;-75
2022/03/15 09:30:30;;;;;;;16.65;9.88;;;;;;;;;;5046990;28;20736;-75
2022/03/15 09:32:57;;;;;;;14.85;9.90;;;;;;;;;;5062888;28;20020;-75
2022/03/15 09:35:23;;;;;;;15.00;10.07;;;;;;;;;;5060363;28;20333;-74
2022/03/15 09:37:49;;;;;;;16.02;10.73;;;;;;;;;;5058777;28;20256;-77
2022/03/15 09:40:20;;;;;;;15.90;10.90;;;;;;;;;;5056296;28;20028;-76
2022/03/15 09:42:48;;;;;;;12.93;9.23;;;;;;;;;;5054105;28;20029;-76
2022/03/15 09:45:14;;;;;;;15.80;9.60;;;;;;;;;;5053133;28;20111;-75
2022/03/15 09:47:40;;;;;;;16.05;10.00;;;;;;;;;;5044212;28;20038;-77
2022/03/15 09:50:07;;;;;;;21.38;11.57;;;;;;;;;;5043673;28;20032;-77
2022/03/15 09:52:34;;;;;;;18.25;12.43;;;;;;;;;;5052778;28;20078;-77
2022/03/15 09:55:01;;;;;;;19.73;12.32;;;;;;;;;;5055729;28;21439;-76
2022/03/15 09:57:27;;;;;;;17.15;11.48;;;;;;;;;;5052780;28;20041;-77
2022/03/15 09:59:59;;;;;;;19.30;11.40;;;;;;;;;;5045875;28;20060;-77
2022/03/15 10:02:26;;;;;;;21.77;11.55;;;;;;;;;;5044658;28;20310;-77
2022/03/15 10:04:51;;;;;;;30.23;17.73;;;;;;;;;;5062563;28;20045;-77
2022/03/15 10:07:16;;;;;;;32.08;16.25;;;;;;;;;;5059409;28;20021;-76
2022/03/15 10:09:42;;;;;;;24.73;14.20;;;;;;;;;;5055517;28;20367;-85
2022/03/15 10:12:08;;;;;;;23.33;13.45;;;;;;;;;;5047172;28;20033;-81
2022/03/15 10:14:45;;;;;;;20.23;12.65;;;;;;;;;;5046934;28;20036;-82
2022/03/15 10:17:12;;;;;;;24.52;14.45;;;;;;;;;;5048408;28;20043;-84
2022/03/15 10:19:38;;;;;;;18.90;12.00;;;;;;;;;;5050928;28;20024;-74
2022/03/15 10:22:08;;;;;;;18.77;11.60;;;;;;;;;;5051920;28;20316;-83
2022/03/15 10:24:38;;;;;;;22.17;12.65;;;;;;;;;;5053635;28;20037;-74
2022/03/15 10:27:06;;;;;;;22.67;13.23;;;;;;;;;;5055103;28;20055;-79
2022/03/15 10:29:33;;;;;;;27.65;13.32;;;;;;;;;;5043604;28;20647;-74
2022/03/15 10:31:59;;;;;;;22.10;12.93;;;;;;;;;;5050303;28;20037;-74
2022/03/15 10:34:27;;;;;;;22.70;12.77;;;;;;;;;;5051788;28;20028;-75
2022/03/15 10:36:54;;;;;;;21.88;13.98;;;;;;;;;;5054416;28;20059;-74
2022/03/15 10:39:20;;;;;;;19.50;12.10;;;;;;;;;;5058797;28;20024;-75
2022/03/15 10:41:58;;;;;;;20.00;13.60;;;;;;;;;;5060789;28;20217;-74
2022/03/15 10:44:50;;;;;;;24.65;13.23;;;;;;;;;;5056386;28;20338;-74
2022/03/15 10:47:18;;;;;;;24.13;13.35;;;;;;;;;;5056021;28;20045;-81
2022/03/15 10:49:54;;;;;;;25.25;15.27;;;;;;;;;;5061021;28;20020;-82
2022/03/15 10:52:34;;;;;;;25.45;15.38;;;;;;;;;;5057194;28;20028;-74
2022/03/15 10:55:08;;;;;;;24.70;14.82;;;;;;;;;;5059869;28;20313;-79
2022/03/15 10:57:50;;;;;;;29.63;16.10;;;;;;;;;;5056308;28;20025;-76
2022/03/15 11:00:17;;;;;;;28.73;16.38;;;;;;;;;;5055896;28;20025;-75
2022/03/15 11:02:44;;;;;;;28.40;16.98;;;;;;;;;;5060308;28;20051;-75
2022/03/15 11:05:10;;;;;;;30.50;17.65;;;;;;;;;;5046621;28;20049;-75
2022/03/15 11:07:39;;;;;;;32.45;16.83;;;;;;;;;;5055325;28;20035;-74
2022/03/15 11:10:14;;;;;;;28.35;16.58;;;;;;;;;;5061249;28;20020;-80
2022/03/15 11:12:57;;;;;;;27.55;16.77;;;;;;;;;;5055371;28;20123;-76
2022/03/15 11:15:30;;;;;;;25.08;16.45;;;;;;;;;;5062203;28;20217;-83
2022/03/15 11:18:07;;;;;;;25.27;15.52;;;;;;;;;;5062726;28;20032;-85
2022/03/15 11:20:35;;;;;;;25.58;16.05;;;;;;;;;;5062061;28;20066;-76
2022/03/15 11:23:03;;;;;;;29.40;16.60;;;;;;;;;;5042671;28;20297;-85
2022/03/15 11:25:35;;;;;;;29.45;16.95;;;;;;;;;;5042821;28;20019;-83
2022/03/15 11:28:03;;;;;;;32.10;16.42;;;;;;;;;;5040193;28;20029;-77
2022/03/15 11:30:29;;;;;;;30.65;16.17;;;;;;;;;;5065096;28;20032;-77
2022/03/15 11:32:55;;;;;;;26.30;16.42;;;;;;;;;;5049784;28;20033;-73
2022/03/15 11:35:22;;;;;;;27.63;15.93;;;;;;;;;;5059367;28;20064;-72
2022/03/15 11:37:48;;;;;;;32.40;16.05;;;;;;;;;;5041035;28;20440;-73
2022/03/15 11:40:14;;;;;;;27.52;15.18;;;;;;;;;;5061128;28;20413;-77
2022/03/15 11:42:43;;;;;;;27.55;15.77;;;;;;;;;;5061584;28;20029;-84
2022/03/15 11:45:14;;;;;;;27.38;15.95;;;;;;;;;;5051198;28;20033;-77
2022/03/15 11:47:56;;;;;;;26.83;15.07;;;;;;;;;;5063416;28;20025;-78
2022/03/15 11:50:37;;;;;;;42.60;16.15;;;;;;;;;;5059684;28;20343;-75
2022/03/15 11:53:24;;;;;;;35.60;16.40;;;;;;;;;;5059863;28;20297;-81
2022/03/15 11:56:01;;;;;;;35.15;15.98;;;;;;;;;;5061248;28;20029;-75
2022/03/15 11:58:28;;;;;;;27.08;15.75;;;;;;;;;;5061179;28;20213;-73
2022/03/15 12:00:56;;;;;;;29.17;17.17;;;;;;;;;;5061250;28;20033;-74
2022/03/15 12:03:23;;;;;;;30.75;16.38;;;;;;;;;;5061783;28;20020;-73
2022/03/15 12:05:57;;;;;;;30.52;16.65;;;;;;;;;;5060592;28;20036;-73
2022/03/15 12:08:26;;;;;;;31.65;15.98;;;;;;;;;;5058623;28;20140;-76
2022/03/15 12:11:06;;;;;;;29.23;15.95;;;;;;;;;;5060403;28;20035;-73
2022/03/15 12:13:32;;;;;;;30.65;16.48;;;;;;;;;;5059187;28;20086;-73
2022/03/15 12:16:12;;;;;;;31.50;16.92;;;;;;;;;;5060607;28;20096;-73
2022/03/15 12:18:54;;;;;;;36.20;17.48;;;;;;;;;;5059888;28;20196;-73
2022/03/15 12:21:26;;;;;;;34.00;17.48;;;;;;;;;;5059903;28;20044;-73
2022/03/15 12:23:53;;;;;;;31.20;16.92;;;;;;;;;;5060571;28;20129;-74
2022/03/15 12:26:30;;;;;;;33.60;15.80;;;;;;;;;;5060022;28;20092;-74
2022/03/15 12:29:02;;;;;;;26.30;16.52;;;;;;;;;;5060823;28;20078;-76
2022/03/15 12:31:46;;;;;;;28.63;16.08;;;;;;;;;;5059442;28;20029;-75
2022/03/15 12:34:13;;;;;;;33.70;18.35;;;;;;;;;;5060685;28;20027;-76
2022/03/15 12:36:40;;;;;;;34.60;18.70;;;;;;;;;;5060509;28;20077;-75
2022/03/15 12:39:14;;;;;;;36.78;19.70;;;;;;;;;;5060235;28;20055;-76
2022/03/15 12:41:40;;;;;;;43.30;20.48;;;;;;;;;;5060000;28;20024;-77
2022/03/15 12:44:08;;;;;;;44.17;20.25;;;;;;;;;;5060933;28;20025;-74
2022/03/15 12:46:37;;;;;;;48.00;22.23;;;;;;;;;;5060722;28;20229;-73
2022/03/15 12:49:15;;;;;;;50.42;23.80;;;;;;;;;;5060218;28;20037;-73
2022/03/15 12:51:44;;;;;;;52.58;24.75;;;;;;;;;;5067444;28;20028;-73
2022/03/15 12:54:13;;;;;;;51.40;23.52;;;;;;;;;;5070960;28;20033;-72
2022/03/15 12:56:44;;;;;;;45.85;22.63;;;;;;;;;;5059805;28;20043;-72
2022/03/15 12:59:22;;;;;;;42.97;21.08;;;;;;;;;;5058974;28;20039;-72
2022/03/15 13:01:49;;;;;;;39.97;20.05;;;;;;;;;;5060237;28;20052;-73
2022/03/15 13:04:16;;;;;;;38.63;19.58;;;;;;;;;;5059319;28;20052;-73
2022/03/15 13:06:45;;;;;;;40.05;20.10;;;;;;;;;;5058549;28;20048;-72
2022/03/15 13:09:21;;;;;;;38.88;19.63;;;;;;;;;;5052649;28;20270;-72
2022/03/15 13:11:47;;;;;;;34.25;18.60;;;;;;;;;;5054823;28;20056;-73
2022/03/15 13:14:12;;;;;;;31.23;17.25;;;;;;;;;;5040395;28;20022;-71
2022/03/15 13:16:45;;;;;;;31.42;17.65;;;;;;;;;;5054818;28;20021;-72
2022/03/15 13:19:11;;;;;;;28.42;16.67;;;;;;;;;;5060326;28;20025;-72
2022/03/15 13:21:39;;;;;;;27.42;16.55;;;;;;;;;;5058619;28;20070;-72
2022/03/15 13:24:11;;;;;;;29.10;16.20;;;;;;;;;;5058929;28;20021;-72
2022/03/15 13:26:40;;;;;;;27.17;16.05;;;;;;;;;;5058232;28;20078;-73
2022/03/15 13:29:07;;;;;;;26.55;15.82;;;;;;;;;;5058438;28;20278;-73
2022/03/15 13:31:35;;;;;;;25.67;15.00;;;;;;;;;;5055997;28;20064;-72
2022/03/15 13:34:02;;;;;;;27.58;16.35;;;;;;;;;;5050804;28;20036;-73
2022/03/15 13:36:32;;;;;;;29.23;16.05;;;;;;;;;;5038652;28;20021;-72
2022/03/15 13:39:00;;;;;;;25.08;15.40;;;;;;;;;;5053573;28;20056;-73
2022/03/15 13:41:50;;;;;;;26.05;14.98;;;;;;;;;;5051865;28;20261;-73
2022/03/15 13:44:21;;;;;;;24.00;14.80;;;;;;;;;;5056962;28;20032;-72
2022/03/15 13:46:50;;;;;;;23.50;14.77;;;;;;;;;;5054328;28;20028;-72
2022/03/15 13:49:27;;;;;;;23.10;14.27;;;;;;;;;;5041910;28;20021;-72
2022/03/15 13:52:07;;;;;;;20.50;13.02;;;;;;;;;;5045873;28;20072;-72
2022/03/15 13:54:47;;;;;;;20.88;13.13;;;;;;;;;;5056403;28;20301;-73
2022/03/15 13:57:26;;;;;;;20.70;13.10;;;;;;;;;;5039902;28;20037;-72
2022/03/15 14:00:06;;;;;;;22.52;13.20;;;;;;;;;;5038968;28;20294;-73
2022/03/15 14:02:33;;;;;;;22.10;13.07;;;;;;;;;;5038725;28;20035;-73
2022/03/15 14:05:01;;;;;;;21.70;13.63;;;;;;;;;;5040872;28;20041;-71
2022/03/15 14:07:27;;;;;;;22.33;13.48;;;;;;;;;;5040632;28;20037;-73
2022/03/15 14:10:01;;;;;;;20.90;13.38;;;;;;;;;;5042248;28;20045;-71
2022/03/15 14:12:33;;;;;;;21.33;13.48;;;;;;;;;;5058605;28;20095;-72
2022/03/15 14:15:07;;;;;;;26.30;13.40;;;;;;;;;;5061551;28;20250;-74
2022/03/15 14:17:54;;;;;;;22.75;14.02;;;;;;;;;;5062154;28;20028;-73
2022/03/15 14:20:27;;;;;;;24.88;13.70;;;;;;;;;;5062301;28;20025;-73
2022/03/15 14:22:55;;;;;;;20.58;12.57;;;;;;;;;;5061341;28;20366;-73
2022/03/15 14:25:26;;;;;;;20.67;12.52;;;;;;;;;;5062355;28;20052;-73
2022/03/15 14:27:57;;;;;;;15.32;10.55;;;;;;;;;;5062227;28;20024;-74
2022/03/15 14:30:24;;;;;;;18.27;11.02;;;;;;;;;;5062144;28;20017;-74
2022/03/15 14:32:58;;;;;;;16.77;9.52;;;;;;;;;;5061467;28;20308;-74